Aérodrome :
LOGIN :

S'inscrire | Disclaimer

   EN    FR    IT 

 










Légende :    VFR   VFR Marginal   IFR   IFR Intensif   IFR Très Intensif
Visi : 
Plafond : 
>= 8 km
>= 3000ft
5 à 8 km
1000 à 3000 ft
1500m à 5 km
500 à 1000 ft
800 à 1500m
200 à 500 ft
< 800m
< 200 ft
Symboles :   Orages  Brouillard  Fortes neiges  Fortes précipitations  Vent > 20 kt
SIGMETs :   Divers  Orages  Givrage  Turbulence  Onde Orograph.  Cendres Volcan.







- Altitude de l'aérodrome : 776 ft
- Code IATA : RMS


ETAR - Ramstein Air Base

DERNIER METAR :
  • 220056Z AUTO 00000KT 9999 CLR 08/05 A3027 RMK AO2 SLP251 T00800051 $

METARs EXPIRÉS :
  • 212356Z AUTO 33004KT 9999 CLR 09/05 A3026 RMK AO2 SLP248 T00930045 10193 20086 52014 $
  • 212256Z AUTO 32003KT 9999 CLR 11/04 A3025 RMK AO2 SLP243 T01070039 402420086 $

TAF TAF ETAR
Valide du 21 à 18h jusqu'au 23 à 00h UTC


211757Z 2118/2224 33009KT 9999 FEW050 QNH3010INS
TEMPO 2118/2120 33012G20KT
BECMG 2206/2207 30012KT 9999 BKN025 QNH3020INS
TEMPO 2209/2212 30012G20KT
BECMG 2220/2221 VRB06KT 9999 SCT020 QNH3032INS TX21/2118Z TN10/2204Z
Pas de NOTAMs connus pour ce terrain.



MET'MAP, la Météo Aéronautique d'un coup d'oeil ! - Copyright ORBIFLY Décembre 2007 - Disclaimer

ORBIFLY MET'MAP TEAM :

Programmation & Développement : Alexandra Zaïnal
Conception & Développement : Baudouin d'Aumeries
Co-Programmation & Développement : Marc-Olivier Méhu
Soutien technique & logistique : Manuel Goepfert

Contact : metmap@orbifly.com




SOURCES & CREDITS :

   NOAA